createdAt,value
2022-09-15T00:00:00.963Z,15.49
2022-09-15T00:02:27.703Z,15.54
2022-09-15T00:04:54.305Z,15.53
2022-09-15T00:07:20.860Z,15.39
2022-09-15T00:09:47.394Z,15.28
2022-09-15T00:12:14.039Z,15.11
2022-09-15T00:14:40.578Z,14.83
2022-09-15T00:17:07.210Z,14.77
2022-09-15T00:19:33.753Z,14.54
2022-09-15T00:22:00.233Z,14.58
2022-09-15T00:24:26.907Z,14.55
2022-09-15T00:26:53.426Z,14.38
2022-09-15T00:29:20.082Z,14.04
2022-09-15T00:31:46.633Z,13.94
2022-09-15T00:34:14.035Z,13.92
2022-09-15T00:36:40.888Z,13.88
2022-09-15T00:39:07.889Z,13.65
2022-09-15T00:41:34.453Z,13.57
2022-09-15T00:44:04.959Z,13.58
2022-09-15T00:46:41.391Z,13.53
2022-09-15T00:49:22.000Z,13.43
2022-09-15T00:51:52.364Z,13.30
2022-09-15T00:54:41.894Z,13.18
2022-09-15T00:57:22.090Z,13.12
2022-09-15T00:59:49.709Z,13.08
2022-09-15T01:02:20.002Z,13.13
2022-09-15T01:04:47.384Z,13.09
2022-09-15T01:07:18.767Z,13.12
2022-09-15T01:09:58.939Z,13.18
2022-09-15T01:12:27.484Z,13.02
2022-09-15T01:14:54.409Z,12.99
2022-09-15T01:17:36.283Z,12.97
2022-09-15T01:20:27.521Z,12.98
2022-09-15T01:23:12.285Z,13.04
2022-09-15T01:26:15.971Z,13.02
2022-09-15T01:28:51.610Z,12.96
2022-09-15T01:32:00.153Z,13.00
2022-09-15T01:34:33.546Z,13.07
2022-09-15T01:37:10.000Z,13.02
2022-09-15T01:39:45.078Z,13.04
2022-09-15T01:42:15.323Z,13.08
2022-09-15T01:45:00.905Z,13.15
2022-09-15T01:47:29.513Z,13.16
2022-09-15T01:49:58.807Z,13.04
2022-09-15T01:52:25.958Z,13.07
2022-09-15T01:54:57.318Z,12.91
2022-09-15T01:57:24.100Z,12.73
2022-09-15T01:59:52.175Z,12.69
2022-09-15T02:02:37.886Z,12.72
2022-09-15T02:05:16.709Z,12.53
2022-09-15T02:08:05.106Z,12.61
2022-09-15T02:10:49.170Z,12.65
2022-09-15T02:13:58.117Z,12.67
2022-09-15T02:16:30.114Z,12.73
2022-09-15T02:19:10.203Z,12.60
2022-09-15T02:21:46.827Z,12.39
2022-09-15T02:24:19.699Z,12.29
2022-09-15T02:26:49.739Z,12.30
2022-09-15T02:29:19.749Z,12.26
2022-09-15T02:31:48.791Z,12.17
2022-09-15T02:34:23.983Z,12.18
2022-09-15T02:36:53.197Z,11.99
2022-09-15T02:39:23.522Z,11.83
2022-09-15T02:41:50.190Z,11.60
2022-09-15T02:44:16.762Z,11.62
2022-09-15T02:46:43.858Z,11.66
2022-09-15T02:49:10.444Z,11.59
2022-09-15T02:51:37.003Z,11.59
2022-09-15T02:54:03.690Z,11.69
2022-09-15T02:56:30.190Z,11.80
2022-09-15T02:58:56.714Z,11.80
2022-09-15T03:01:31.851Z,11.74
2022-09-15T03:03:59.138Z,11.72
2022-09-15T03:06:27.930Z,11.68
2022-09-15T03:08:58.595Z,11.69
2022-09-15T03:11:27.322Z,11.70
2022-09-15T03:14:02.138Z,11.69
2022-09-15T03:16:31.053Z,11.63
2022-09-15T03:18:59.498Z,11.68
2022-09-15T03:21:27.547Z,11.74
2022-09-15T03:23:54.053Z,11.71
2022-09-15T03:26:20.609Z,11.70
2022-09-15T03:28:47.153Z,11.71
2022-09-15T03:31:13.933Z,11.69
2022-09-15T03:33:41.028Z,11.74
2022-09-15T03:36:08.121Z,11.76
2022-09-15T03:38:34.841Z,11.69
2022-09-15T03:41:07.757Z,11.66
2022-09-15T03:43:35.675Z,11.69
2022-09-15T03:46:03.042Z,11.67
2022-09-15T03:48:32.608Z,11.71
2022-09-15T03:50:59.319Z,11.71
2022-09-15T03:53:26.026Z,11.59
2022-09-15T03:55:52.939Z,11.61
2022-09-15T03:58:19.745Z,11.68
2022-09-15T04:00:47.020Z,11.72
2022-09-15T04:03:14.100Z,11.73
2022-09-15T04:05:42.097Z,11.70
2022-09-15T04:08:12.405Z,11.72
2022-09-15T04:10:40.281Z,11.65
2022-09-15T04:13:07.181Z,11.63
2022-09-15T04:15:33.721Z,11.67
2022-09-15T04:18:00.419Z,11.62
2022-09-15T04:20:27.244Z,11.66
2022-09-15T04:22:53.751Z,11.62
2022-09-15T04:25:20.249Z,11.62
2022-09-15T04:27:46.806Z,11.61
2022-09-15T04:30:13.798Z,11.49
2022-09-15T04:32:40.292Z,11.45
2022-09-15T04:35:07.395Z,11.41
2022-09-15T04:37:34.447Z,11.41
2022-09-15T04:40:01.417Z,11.31
2022-09-15T04:42:28.114Z,11.25
2022-09-15T04:44:54.684Z,11.20
2022-09-15T04:47:21.255Z,11.20
2022-09-15T04:49:47.883Z,11.10
2022-09-15T04:52:14.385Z,11.09
2022-09-15T04:54:41.069Z,11.08
2022-09-15T04:57:07.850Z,11.06
2022-09-15T04:59:34.630Z,11.05
2022-09-15T05:02:01.531Z,11.06
2022-09-15T05:04:28.139Z,11.05
2022-09-15T05:06:54.673Z,10.98
2022-09-15T05:09:21.386Z,10.95
2022-09-15T05:11:48.243Z,10.99
2022-09-15T05:14:14.875Z,10.93
2022-09-15T05:16:41.523Z,10.97
2022-09-15T05:19:10.261Z,10.99
2022-09-15T05:21:36.792Z,10.97
2022-09-15T05:24:03.689Z,10.94
2022-09-15T05:26:30.508Z,10.93
2022-09-15T05:28:57.452Z,10.96
2022-09-15T05:31:32.536Z,10.98
2022-09-15T05:34:02.513Z,11.01
2022-09-15T05:36:30.011Z,10.98
2022-09-15T05:38:57.669Z,10.94
2022-09-15T05:41:25.115Z,10.95
2022-09-15T05:43:52.274Z,10.92
2022-09-15T05:46:19.571Z,11.00
2022-09-15T05:48:46.625Z,11.04
2022-09-15T05:51:14.354Z,11.03
2022-09-15T05:53:41.593Z,11.02
2022-09-15T05:56:12.115Z,11.19
2022-09-15T05:58:40.753Z,11.03
2022-09-15T06:01:13.334Z,11.04
2022-09-15T06:03:40.891Z,11.04
2022-09-15T06:06:07.532Z,11.10
2022-09-15T06:08:36.688Z,11.19
2022-09-15T06:11:12.370Z,11.19
2022-09-15T06:13:39.655Z,11.07
2022-09-15T06:16:09.317Z,11.05
2022-09-15T06:18:37.503Z,11.08
2022-09-15T06:21:15.081Z,11.13
2022-09-15T06:23:44.136Z,11.09
2022-09-15T06:26:17.814Z,11.12
2022-09-15T06:28:57.825Z,11.52
2022-09-15T06:31:26.752Z,11.65
2022-09-15T06:33:56.092Z,11.48
2022-09-15T06:36:26.137Z,11.48
2022-09-15T06:38:53.317Z,11.58
2022-09-15T06:41:20.750Z,11.48
2022-09-15T06:43:49.250Z,11.62
2022-09-15T06:46:21.840Z,11.66
2022-09-15T06:48:48.950Z,11.50
2022-09-15T06:51:17.516Z,11.41
2022-09-15T06:53:44.813Z,11.44
2022-09-15T06:56:14.600Z,11.50
2022-09-15T06:58:42.887Z,11.54
2022-09-15T07:01:19.077Z,11.73
2022-09-15T07:03:45.700Z,11.73
2022-09-15T07:06:12.919Z,11.69
2022-09-15T07:08:40.763Z,11.69
2022-09-15T07:11:08.560Z,11.65
2022-09-15T07:13:35.500Z,11.69
2022-09-15T07:16:04.369Z,11.78
2022-09-15T07:18:32.470Z,11.92
2022-09-15T07:21:11.637Z,12.11
2022-09-15T07:23:38.222Z,11.99
2022-09-15T07:26:19.553Z,12.02
2022-09-15T07:28:50.076Z,12.00
2022-09-15T07:31:20.220Z,11.99
2022-09-15T07:33:47.311Z,12.01
2022-09-15T07:36:14.902Z,12.15
2022-09-15T07:38:44.047Z,11.95
2022-09-15T07:41:16.460Z,12.00
2022-09-15T07:43:47.953Z,12.03
2022-09-15T07:46:15.964Z,12.14
2022-09-15T07:48:47.301Z,12.19
2022-09-15T07:51:15.157Z,12.35
2022-09-15T07:53:44.710Z,12.33
2022-09-15T07:56:11.380Z,12.49
2022-09-15T07:58:37.961Z,12.56
2022-09-15T08:01:06.880Z,12.51
2022-09-15T08:03:33.626Z,12.54
2022-09-15T08:06:01.662Z,12.41
2022-09-15T08:08:29.167Z,12.35
2022-09-15T08:10:56.293Z,12.56
2022-09-15T08:13:23.187Z,12.89
2022-09-15T08:15:50.628Z,12.78
2022-09-15T08:18:17.714Z,12.80
2022-09-15T08:20:44.322Z,12.69
2022-09-15T08:23:11.596Z,12.71
2022-09-15T08:25:38.927Z,13.03
2022-09-15T08:28:05.711Z,13.18
2022-09-15T08:30:32.312Z,13.35
2022-09-15T08:32:58.830Z,13.20
2022-09-15T08:35:25.341Z,13.09
2022-09-15T08:37:54.248Z,13.28
2022-09-15T08:40:30.759Z,13.33
2022-09-15T08:43:03.634Z,13.73
2022-09-15T08:45:43.225Z,13.53
2022-09-15T08:48:15.963Z,13.37
2022-09-15T08:50:47.644Z,13.55
2022-09-15T08:53:17.140Z,13.43
2022-09-15T08:55:52.951Z,13.36
2022-09-15T08:58:25.545Z,13.51
2022-09-15T09:01:03.881Z,13.48
2022-09-15T09:03:55.047Z,13.63
2022-09-15T09:06:54.748Z,14.00
2022-09-15T09:09:48.438Z,14.14
2022-09-15T09:12:33.824Z,14.47
2022-09-15T09:15:24.729Z,14.21
2022-09-15T09:18:18.692Z,14.06
2022-09-15T09:21:00.194Z,13.60
2022-09-15T09:23:29.426Z,13.55
2022-09-15T09:25:57.557Z,13.68
2022-09-15T09:28:39.268Z,13.85
2022-09-15T09:31:15.277Z,13.84
2022-09-15T09:33:47.771Z,13.99
2022-09-15T09:36:14.720Z,14.06
2022-09-15T09:38:44.579Z,14.34
2022-09-15T09:41:25.474Z,14.71
2022-09-15T09:43:54.938Z,14.73
2022-09-15T09:46:22.237Z,14.44
2022-09-15T09:49:23.196Z,14.53
2022-09-15T09:51:55.259Z,14.41
2022-09-15T09:54:25.054Z,14.25
2022-09-15T09:56:53.735Z,14.25
2022-09-15T09:59:43.023Z,14.55
2022-09-15T10:02:12.273Z,14.54
2022-09-15T10:04:40.828Z,14.77
2022-09-15T10:07:08.551Z,15.06
2022-09-15T10:09:37.490Z,15.41
2022-09-15T10:12:06.289Z,15.30
2022-09-15T10:14:39.691Z,15.06
2022-09-15T10:17:08.878Z,14.88
2022-09-15T10:19:56.696Z,14.47
2022-09-15T10:22:27.048Z,14.54
2022-09-15T10:24:54.248Z,14.97
2022-09-15T10:27:36.829Z,15.15
2022-09-15T10:30:12.559Z,15.21
2022-09-15T10:32:40.251Z,15.35
2022-09-15T10:35:14.423Z,15.47
2022-09-15T10:37:59.901Z,15.46
2022-09-15T10:40:41.571Z,15.24
2022-09-15T10:43:24.687Z,15.32
2022-09-15T10:46:09.170Z,15.51
2022-09-15T10:49:01.843Z,15.65
2022-09-15T10:51:57.929Z,15.62
2022-09-15T10:54:30.319Z,15.97
2022-09-15T11:00:24.135Z,15.64
2022-09-15T11:03:05.934Z,15.73
2022-09-15T11:05:37.943Z,15.91
2022-09-15T11:08:26.556Z,15.89
2022-09-15T11:11:20.397Z,15.99
2022-09-15T11:14:17.397Z,16.23
2022-09-15T11:16:52.979Z,16.21
2022-09-15T11:19:43.779Z,16.33
2022-09-15T11:22:35.353Z,16.21
2022-09-15T11:25:12.836Z,16.29
2022-09-15T11:28:01.130Z,16.42
2022-09-15T11:30:43.440Z,16.45
2022-09-15T11:33:21.665Z,16.35
2022-09-15T11:35:54.570Z,16.53
2022-09-15T11:38:32.892Z,16.51
2022-09-15T11:41:15.410Z,16.90
2022-09-15T11:43:45.932Z,16.83
2022-09-15T11:46:24.454Z,16.66
2022-09-15T11:48:59.863Z,16.68
2022-09-15T11:51:28.625Z,16.82
2022-09-15T11:54:25.427Z,16.47
2022-09-15T11:56:53.694Z,16.38
2022-09-15T11:59:49.146Z,16.32
2022-09-15T12:02:51.417Z,16.02
2022-09-15T12:05:27.474Z,15.96
2022-09-15T12:08:02.943Z,16.16
2022-09-15T12:10:39.790Z,16.38
2022-09-15T12:13:07.808Z,16.21
2022-09-15T12:15:34.681Z,16.49
2022-09-15T12:18:27.426Z,16.55
2022-09-15T12:21:02.404Z,16.38
2022-09-15T12:23:44.939Z,16.41
2022-09-15T12:26:20.895Z,16.30
2022-09-15T12:28:47.442Z,16.14
2022-09-15T12:31:22.830Z,15.90
2022-09-15T12:34:06.347Z,15.65
2022-09-15T12:36:34.554Z,15.80
2022-09-15T12:39:03.707Z,15.92
2022-09-15T12:41:31.357Z,15.94
2022-09-15T12:44:38.334Z,16.27
2022-09-15T12:47:08.029Z,16.06
2022-09-15T12:49:42.425Z,16.18
2022-09-15T12:52:10.960Z,16.17
2022-09-15T12:54:40.423Z,16.17
2022-09-15T12:57:15.697Z,16.41
2022-09-15T12:59:42.547Z,16.54
2022-09-15T13:02:42.711Z,16.45
2022-09-15T13:05:11.822Z,16.68
2022-09-15T13:07:56.654Z,16.65
2022-09-15T13:10:39.475Z,16.62
2022-09-15T13:13:18.633Z,16.63
2022-09-15T13:15:48.711Z,16.66
2022-09-15T13:18:17.273Z,16.41
2022-09-15T13:20:55.998Z,16.39
2022-09-15T13:23:27.196Z,16.30
2022-09-15T13:25:58.042Z,16.51
2022-09-15T13:28:26.895Z,16.53
2022-09-15T13:31:23.770Z,16.52
2022-09-15T13:40:27.362Z,16.08
2022-09-15T13:42:57.614Z,16.09
2022-09-15T13:45:34.318Z,16.01
2022-09-15T13:48:31.720Z,16.02
2022-09-15T13:51:06.022Z,16.05
2022-09-15T13:54:10.419Z,16.00
2022-09-15T13:56:41.194Z,16.01
2022-09-15T13:59:17.005Z,16.26
2022-09-15T14:01:44.944Z,16.30
2022-09-15T14:04:27.874Z,16.12
2022-09-15T14:07:00.918Z,16.15
2022-09-15T14:09:34.795Z,16.02
2022-09-15T14:12:07.713Z,15.88
2022-09-15T14:14:55.354Z,15.85
2022-09-15T14:17:27.369Z,15.68
2022-09-15T14:19:56.918Z,15.57
2022-09-15T14:22:26.373Z,15.37
2022-09-15T14:24:54.152Z,15.23
2022-09-15T14:27:44.363Z,15.13
2022-09-15T14:30:21.601Z,14.91
2022-09-15T14:32:52.275Z,14.89
2022-09-15T14:35:26.107Z,14.94
2022-09-15T14:37:58.102Z,15.01
2022-09-15T14:40:36.866Z,15.06
2022-09-15T14:43:04.175Z,15.14
2022-09-15T14:48:30.079Z,15.03
2022-09-15T14:51:02.149Z,15.26
2022-09-15T14:53:32.466Z,15.30
2022-09-15T14:56:04.351Z,15.60
2022-09-15T14:58:54.045Z,15.44
2022-09-15T15:01:37.901Z,15.38
2022-09-15T15:04:11.947Z,15.76
2022-09-15T15:06:41.753Z,15.73
2022-09-15T15:09:23.219Z,15.41
2022-09-15T15:11:53.044Z,15.27
2022-09-15T15:14:20.121Z,15.18
2022-09-15T15:16:59.034Z,15.37
2022-09-15T15:19:46.514Z,15.47
2022-09-15T15:22:13.252Z,15.46
2022-09-15T15:24:42.897Z,15.65
2022-09-15T15:27:34.355Z,15.25
2022-09-15T15:30:23.892Z,15.27
2022-09-15T15:32:50.874Z,15.32
2022-09-15T15:35:18.467Z,15.17
2022-09-15T15:37:45.679Z,15.09
2022-09-15T15:40:18.858Z,15.05
2022-09-15T15:43:20.871Z,15.01
2022-09-15T15:45:50.278Z,14.94
2022-09-15T15:48:16.862Z,14.80
2022-09-15T15:50:44.209Z,14.74
2022-09-15T15:53:10.779Z,14.75
2022-09-15T15:55:40.772Z,14.66
2022-09-15T15:58:10.190Z,14.56
2022-09-15T16:00:48.695Z,14.54
2022-09-15T16:03:16.818Z,14.52
2022-09-15T16:06:10.190Z,14.43
2022-09-15T16:08:40.098Z,14.35
2022-09-15T16:11:10.536Z,14.49
2022-09-15T16:13:37.059Z,14.38
2022-09-15T16:16:13.737Z,14.32
2022-09-15T16:18:40.354Z,14.28
2022-09-15T16:21:07.489Z,14.33
2022-09-15T16:23:34.078Z,14.31
2022-09-15T16:26:03.565Z,14.34
2022-09-15T16:28:30.379Z,14.37
2022-09-15T16:30:57.786Z,14.35
2022-09-15T16:33:24.998Z,14.35
2022-09-15T16:36:03.841Z,14.25
2022-09-15T16:38:30.468Z,14.30
2022-09-15T16:40:57.736Z,14.25
2022-09-15T16:43:24.255Z,14.19
2022-09-15T16:45:51.937Z,14.23
2022-09-15T16:48:19.111Z,14.26
2022-09-15T16:51:02.416Z,14.23
2022-09-15T16:53:33.699Z,14.23
2022-09-15T16:56:00.583Z,14.17
2022-09-15T16:58:28.100Z,14.18
2022-09-15T17:00:55.037Z,14.07
2022-09-15T17:03:24.246Z,13.96
2022-09-15T17:05:52.997Z,13.97
2022-09-15T17:08:22.178Z,14.02
2022-09-15T17:10:48.994Z,14.05
2022-09-15T17:13:22.258Z,13.96
2022-09-15T17:15:50.802Z,13.82
2022-09-15T17:18:17.521Z,13.80
2022-09-15T17:20:45.581Z,13.66
2022-09-15T17:23:20.189Z,13.49
2022-09-15T17:25:53.698Z,13.56
2022-09-15T17:28:22.613Z,13.45
2022-09-15T17:30:57.882Z,13.39
2022-09-15T17:33:24.903Z,13.40
2022-09-15T17:35:51.613Z,13.31
2022-09-15T17:38:20.430Z,13.22
2022-09-15T17:40:51.010Z,13.24
2022-09-15T17:43:19.705Z,13.05
2022-09-15T17:45:47.030Z,12.98
2022-09-15T17:48:13.655Z,12.98
2022-09-15T17:50:41.858Z,12.96
2022-09-15T17:53:16.370Z,12.95
2022-09-15T17:55:43.555Z,12.98
2022-09-15T17:58:10.751Z,12.93
2022-09-15T18:00:39.369Z,12.95
2022-09-15T18:03:20.805Z,12.90
2022-09-15T18:05:47.806Z,12.91
2022-09-15T18:08:14.374Z,12.85
2022-09-15T18:10:41.162Z,12.87
2022-09-15T18:13:10.970Z,12.77
2022-09-15T18:15:38.115Z,12.69
2022-09-15T18:18:08.542Z,12.70
2022-09-15T18:20:36.757Z,12.64
2022-09-15T18:23:03.264Z,12.60
2022-09-15T18:25:37.054Z,12.61
2022-09-15T18:28:04.226Z,12.60
2022-09-15T18:30:38.336Z,12.56
2022-09-15T18:33:09.470Z,12.54
2022-09-15T18:35:44.076Z,12.53
2022-09-15T18:38:13.393Z,12.48
2022-09-15T18:40:48.979Z,12.46
2022-09-15T18:43:16.860Z,12.39
2022-09-15T18:45:43.369Z,12.33
2022-09-15T18:48:12.845Z,12.28
2022-09-15T18:50:41.526Z,12.27
2022-09-15T18:53:09.022Z,12.24
2022-09-15T18:55:36.182Z,12.16
2022-09-15T18:58:03.016Z,12.11
2022-09-15T19:00:29.812Z,12.13
2022-09-15T19:03:00.168Z,12.11
2022-09-15T19:05:29.967Z,12.10
2022-09-15T19:07:57.586Z,12.07
2022-09-15T19:10:26.569Z,12.08
2022-09-15T19:12:53.801Z,12.15
2022-09-15T19:15:23.700Z,12.11
2022-09-15T19:17:50.453Z,12.13
2022-09-15T19:20:17.311Z,12.19
2022-09-15T19:22:43.853Z,12.19
2022-09-15T19:25:12.251Z,12.17
2022-09-15T19:27:39.750Z,12.21
2022-09-15T19:30:09.887Z,12.23
2022-09-15T19:32:38.330Z,12.23
2022-09-15T19:35:06.443Z,12.24
2022-09-15T19:37:36.953Z,12.21
2022-09-15T19:40:08.413Z,12.23
2022-09-15T19:42:36.050Z,12.22
2022-09-15T19:45:02.718Z,12.22
2022-09-15T19:47:29.292Z,12.18
2022-09-15T19:49:55.807Z,12.15
2022-09-15T19:52:22.383Z,12.14
2022-09-15T19:54:49.145Z,12.12
2022-09-15T19:57:16.319Z,12.06
2022-09-15T19:59:43.333Z,12.03
2022-09-15T20:02:10.964Z,12.06
2022-09-15T20:04:40.637Z,12.08
2022-09-15T20:07:07.251Z,12.06
2022-09-15T20:09:34.206Z,12.04
2022-09-15T20:12:03.332Z,12.05
2022-09-15T20:14:31.444Z,12.09
2022-09-15T20:17:01.187Z,12.06
2022-09-15T20:19:29.255Z,12.11
2022-09-15T20:21:56.099Z,12.13
2022-09-15T20:24:24.094Z,12.11
2022-09-15T20:26:51.424Z,12.09
2022-09-15T20:29:18.196Z,12.12
2022-09-15T20:31:44.899Z,12.09
2022-09-15T20:34:11.549Z,12.08
2022-09-15T20:36:39.101Z,12.04
2022-09-15T20:39:10.395Z,12.04
2022-09-15T20:41:37.547Z,12.00
2022-09-15T20:44:06.025Z,11.97
2022-09-15T20:46:33.557Z,11.97
2022-09-15T20:49:00.380Z,11.88
2022-09-15T20:51:33.654Z,11.76
2022-09-15T20:54:02.248Z,11.85
2022-09-15T20:56:31.337Z,11.84
2022-09-15T20:58:59.531Z,11.85
2022-09-15T21:01:34.303Z,11.80
2022-09-15T21:04:01.295Z,11.81
2022-09-15T21:06:28.772Z,11.72
2022-09-15T21:08:56.850Z,11.73
2022-09-15T21:11:26.875Z,11.81
2022-09-15T21:13:54.779Z,11.75
2022-09-15T21:16:24.228Z,11.70
2022-09-15T21:18:52.308Z,11.72
2022-09-15T21:21:21.478Z,11.62
2022-09-15T21:23:50.442Z,11.68
2022-09-15T21:26:28.326Z,11.64
2022-09-15T21:28:56.150Z,11.61
2022-09-15T21:31:26.134Z,11.62
2022-09-15T21:33:54.162Z,11.61
2022-09-15T21:36:23.429Z,11.65
2022-09-15T21:38:52.483Z,11.64
2022-09-15T21:41:23.450Z,11.64
2022-09-15T21:43:55.465Z,11.63
2022-09-15T21:46:25.335Z,11.61
2022-09-15T21:48:52.116Z,11.64
2022-09-15T21:51:24.185Z,11.64
2022-09-15T21:53:53.218Z,11.56
2022-09-15T21:56:20.787Z,11.54
2022-09-15T21:58:47.298Z,11.51
2022-09-15T22:01:29.221Z,11.53
2022-09-15T22:04:00.671Z,11.51
2022-09-15T22:06:33.278Z,11.48
2022-09-15T22:09:01.706Z,11.48
2022-09-15T22:11:28.753Z,11.39
2022-09-15T22:13:55.806Z,11.41
2022-09-15T22:16:24.551Z,11.39
2022-09-15T22:18:52.029Z,11.34
2022-09-15T22:21:27.689Z,11.28
2022-09-15T22:23:56.811Z,11.23
2022-09-15T22:26:31.434Z,11.26
2022-09-15T22:29:01.959Z,11.31
2022-09-15T22:31:29.274Z,11.21
2022-09-15T22:33:56.734Z,11.15
2022-09-15T22:36:29.881Z,11.09
2022-09-15T22:39:04.243Z,10.99
2022-09-15T22:41:36.059Z,10.88
2022-09-15T22:44:04.229Z,10.89
2022-09-15T22:46:31.496Z,10.88
2022-09-15T22:48:58.343Z,10.86
2022-09-15T22:51:25.291Z,10.80
2022-09-15T22:53:56.799Z,10.94
2022-09-15T22:56:25.647Z,11.00
2022-09-15T22:58:52.243Z,11.00
2022-09-15T23:01:24.185Z,10.89
2022-09-15T23:03:55.967Z,10.81
2022-09-15T23:06:24.087Z,10.75
2022-09-15T23:08:52.279Z,10.75
2022-09-15T23:11:19.820Z,10.64
2022-09-15T23:13:46.903Z,10.64
2022-09-15T23:16:13.475Z,10.60
2022-09-15T23:18:40.086Z,10.53
2022-09-15T23:21:09.419Z,10.48
2022-09-15T23:23:38.281Z,10.36
2022-09-15T23:26:07.342Z,10.29
2022-09-15T23:28:34.497Z,10.27
2022-09-15T23:31:01.419Z,10.21
2022-09-15T23:33:29.911Z,10.18
2022-09-15T23:35:58.967Z,10.22
2022-09-15T23:38:25.737Z,10.35
2022-09-15T23:40:52.424Z,10.39
2022-09-15T23:43:19.024Z,10.49
2022-09-15T23:45:46.209Z,10.47
2022-09-15T23:48:14.161Z,10.52
2022-09-15T23:50:41.590Z,10.58
2022-09-15T23:53:09.169Z,10.56
2022-09-15T23:55:36.048Z,10.61
2022-09-15T23:58:03.432Z,10.54
